This is the latest recevied weather packets stored in our database for station/object KN6ZYR. If no packets are shown the sender has not sent any weather packets the latest 10 day(s).
| Time | Temp. | Humidity | Pressure | Rain* | Wind** | Luminosity | Snow |
|---|---|---|---|---|---|---|---|
| 1778052616 | 12.22° C | 66% | 1020.6 hPa | 0 mm | - | 0 W/m² | - |
| 1778052313 | 12.22° C | 66% | 1020.6 hPa | 0 mm | - | 0 W/m² | - |
| 1778052010 | 12.22° C | 67% | 1020.6 hPa | 0 mm | - | 0 W/m² | - |
| 1778051708 | 12.22° C | 67% | 1020.4 hPa | 0 mm | - | 0 W/m² | - |
| 1778051405 | 11.67° C | 69% | 1020.1 hPa | 0 mm | - | 0 W/m² | - |
| 1778051103 | 11.67° C | 71% | 1020.4 hPa | 0 mm | - | 0 W/m² | - |
| 1778050799 | 11.67° C | 71% | 1020.5 hPa | 0 mm | - | 0 W/m² | - |
| 1778050497 | 12.22° C | 68% | 1020.4 hPa | 0 mm | - | 0 W/m² | - |
| 1778050193 | 11.67° C | 70% | 1020.5 hPa | 0 mm | - | 0 W/m² | - |
| 1778049890 | 10.56° C | 72% | 1020.2 hPa | 0 mm | - | 0 W/m² | - |
| 1778049586 | 10.56° C | 75% | 1020 hPa | 0 mm | - | 0 W/m² | - |
| 1778049284 | 10.56° C | 75% | 1019.7 hPa | 0 mm | - | 0 W/m² | - |
| 1778048981 | 10.56° C | 73% | 1019.9 hPa | 0 mm | - | 0 W/m² | - |
| 1778048679 | 11.11° C | 70% | 1020 hPa | 0 mm | - | 0 W/m² | - |
| 1778048375 | 11.11° C | 70% | 1020 hPa | 0 mm | - | 0 W/m² | - |
| 1778048072 | 11.11° C | 70% | 1020.1 hPa | 0 mm | - | 0 W/m² | - |
| 1778047770 | 11.11° C | 69% | 1020 hPa | 0 mm | - | 0 W/m² | - |
| 1778047468 | 11.11° C | 70% | 1020.1 hPa | 0 mm | - | 0 W/m² | - |
| 1778047165 | 10.56° C | 73% | 1019.9 hPa | 0 mm | - | 0 W/m² | - |
| 1778046862 | 10.56° C | 76% | 1019.9 hPa | 0 mm | - | 0 W/m² | - |
| 1778046558 | 10.56° C | 78% | 1020 hPa | 0 mm | - | 0 W/m² | - |
| 1778046255 | 10.56° C | 78% | 1019.8 hPa | 0 mm | - | 0 W/m² | - |
| 1778045951 | 10° C | 78% | 1019.8 hPa | 0 mm | - | 0 W/m² | - |
| 1778045650 | 10.56° C | 75% | 1019.6 hPa | 0 mm | - | 0 W/m² | - |
| 1778045348 | 10.56° C | 74% | 1019.7 hPa | 0 mm | - | 0 W/m² | - |
* Rain latest hour (hover to see other rain measurements)
** Current wind speed in m/s (hover to see current wind gust speed)